sensor_id;sensor_type;location;lat;lon;timestamp;temperature;humidity
66271;DHT22;53063;39.614;8.814;2022-11-15T00:02:01;15.00;88.00
66271;DHT22;53063;39.614;8.814;2022-11-15T00:04:48;15.00;88.10
66271;DHT22;53063;39.614;8.814;2022-11-15T00:07:32;15.00;88.20
66271;DHT22;53063;39.614;8.814;2022-11-15T00:10:17;15.00;88.20
66271;DHT22;53063;39.614;8.814;2022-11-15T00:13:12;15.00;88.20
66271;DHT22;53063;39.614;8.814;2022-11-15T00:15:58;15.00;88.30
66271;DHT22;53063;39.614;8.814;2022-11-15T00:18:42;15.00;88.40
66271;DHT22;53063;39.614;8.814;2022-11-15T00:21:27;15.00;88.50
66271;DHT22;53063;39.614;8.814;2022-11-15T00:24:12;14.90;88.50
66271;DHT22;53063;39.614;8.814;2022-11-15T00:26:57;14.90;88.70
66271;DHT22;53063;39.614;8.814;2022-11-15T00:29:41;14.90;88.80
66271;DHT22;53063;39.614;8.814;2022-11-15T00:32:31;14.90;88.80
66271;DHT22;53063;39.614;8.814;2022-11-15T00:35:16;14.90;89.00
66271;DHT22;53063;39.614;8.814;2022-11-15T00:38:02;15.00;89.00
66271;DHT22;53063;39.614;8.814;2022-11-15T00:40:46;15.00;88.80
66271;DHT22;53063;39.614;8.814;2022-11-15T00:43:32;15.00;88.90
66271;DHT22;53063;39.614;8.814;2022-11-15T00:46:16;14.90;89.00
66271;DHT22;53063;39.614;8.814;2022-11-15T00:49:01;14.90;89.10
66271;DHT22;53063;39.614;8.814;2022-11-15T00:51:45;14.90;89.30
66271;DHT22;53063;39.614;8.814;2022-11-15T00:54:30;14.90;89.30
66271;DHT22;53063;39.614;8.814;2022-11-15T00:57:15;14.90;89.30
66271;DHT22;53063;39.614;8.814;2022-11-15T00:59:59;15.00;89.30
66271;DHT22;53063;39.614;8.814;2022-11-15T01:02:44;15.00;89.20
66271;DHT22;53063;39.614;8.814;2022-11-15T01:05:29;15.10;89.10
66271;DHT22;53063;39.614;8.814;2022-11-15T01:08:15;15.10;88.90
66271;DHT22;53063;39.614;8.814;2022-11-15T01:11:05;15.10;88.60
66271;DHT22;53063;39.614;8.814;2022-11-15T01:13:50;15.10;88.50
66271;DHT22;53063;39.614;8.814;2022-11-15T01:16:34;15.20;88.10
66271;DHT22;53063;39.614;8.814;2022-11-15T01:19:19;15.20;87.90
66271;DHT22;53063;39.614;8.814;2022-11-15T01:22:04;15.30;87.50
66271;DHT22;53063;39.614;8.814;2022-11-15T01:24:52;15.30;87.20
66271;DHT22;53063;39.614;8.814;2022-11-15T01:27:36;15.30;87.10
66271;DHT22;53063;39.614;8.814;2022-11-15T01:30:21;15.30;87.00
66271;DHT22;53063;39.614;8.814;2022-11-15T01:33:05;15.20;87.10
66271;DHT22;53063;39.614;8.814;2022-11-15T01:35:50;15.30;86.90
66271;DHT22;53063;39.614;8.814;2022-11-15T01:38:34;15.30;86.80
66271;DHT22;53063;39.614;8.814;2022-11-15T01:41:25;15.20;86.60
66271;DHT22;53063;39.614;8.814;2022-11-15T01:44:34;15.20;86.10
66271;DHT22;53063;39.614;8.814;2022-11-15T01:50:22;15.30;85.40
66271;DHT22;53063;39.614;8.814;2022-11-15T01:53:07;15.20;85.20
66271;DHT22;53063;39.614;8.814;2022-11-15T01:55:52;15.20;85.10
66271;DHT22;53063;39.614;8.814;2022-11-15T01:58:39;15.20;84.80
66271;DHT22;53063;39.614;8.814;2022-11-15T02:01:25;15.20;84.70
66271;DHT22;53063;39.614;8.814;2022-11-15T02:04:17;15.30;84.60
66271;DHT22;53063;39.614;8.814;2022-11-15T02:07:05;15.30;84.50
66271;DHT22;53063;39.614;8.814;2022-11-15T02:09:50;15.30;84.50
66271;DHT22;53063;39.614;8.814;2022-11-15T02:12:36;15.40;84.50
66271;DHT22;53063;39.614;8.814;2022-11-15T02:15:21;15.30;84.30
66271;DHT22;53063;39.614;8.814;2022-11-15T02:21:21;15.30;84.10
66271;DHT22;53063;39.614;8.814;2022-11-15T02:39:54;15.30;84.30
66271;DHT22;53063;39.614;8.814;2022-11-15T02:42:47;15.30;84.30
66271;DHT22;53063;39.614;8.814;2022-11-15T02:46:04;15.20;84.50
66271;DHT22;53063;39.614;8.814;2022-11-15T02:48:50;15.20;84.50
66271;DHT22;53063;39.614;8.814;2022-11-15T02:51:35;15.20;84.70
66271;DHT22;53063;39.614;8.814;2022-11-15T02:54:26;15.20;84.80
66271;DHT22;53063;39.614;8.814;2022-11-15T02:57:16;15.20;84.80
66271;DHT22;53063;39.614;8.814;2022-11-15T03:00:12;15.20;84.80
66271;DHT22;53063;39.614;8.814;2022-11-15T03:07:01;15.10;85.00
66271;DHT22;53063;39.614;8.814;2022-11-15T03:10:00;15.00;85.10
66271;DHT22;53063;39.614;8.814;2022-11-15T03:13:01;15.10;85.20
66271;DHT22;53063;39.614;8.814;2022-11-15T03:16:19;15.10;85.20
66271;DHT22;53063;39.614;8.814;2022-11-15T03:19:21;15.10;85.10
66271;DHT22;53063;39.614;8.814;2022-11-15T03:22:11;15.00;85.20
66271;DHT22;53063;39.614;8.814;2022-11-15T03:25:00;15.10;85.20
66271;DHT22;53063;39.614;8.814;2022-11-15T03:27:50;15.10;85.10
66271;DHT22;53063;39.614;8.814;2022-11-15T03:30:36;15.10;85.10
66271;DHT22;53063;39.614;8.814;2022-11-15T03:33:21;15.10;85.20
66271;DHT22;53063;39.614;8.814;2022-11-15T03:36:06;15.10;85.20
66271;DHT22;53063;39.614;8.814;2022-11-15T03:38:53;15.10;85.00
66271;DHT22;53063;39.614;8.814;2022-11-15T03:42:13;15.10;85.00
66271;DHT22;53063;39.614;8.814;2022-11-15T03:48:16;15.10;85.00
66271;DHT22;53063;39.614;8.814;2022-11-15T03:51:03;15.10;85.10
66271;DHT22;53063;39.614;8.814;2022-11-15T03:53:48;15.10;85.20
66271;DHT22;53063;39.614;8.814;2022-11-15T03:56:32;15.10;85.30
66271;DHT22;53063;39.614;8.814;2022-11-15T03:59:17;15.10;85.40
66271;DHT22;53063;39.614;8.814;2022-11-15T04:02:01;15.10;85.50
66271;DHT22;53063;39.614;8.814;2022-11-15T04:04:46;15.00;85.40
66271;DHT22;53063;39.614;8.814;2022-11-15T04:07:31;15.00;85.50
66271;DHT22;53063;39.614;8.814;2022-11-15T04:10:15;15.10;85.40
66271;DHT22;53063;39.614;8.814;2022-11-15T04:13:02;15.10;85.30
66271;DHT22;53063;39.614;8.814;2022-11-15T04:15:47;15.00;85.40
66271;DHT22;53063;39.614;8.814;2022-11-15T04:18:31;15.00;85.50
66271;DHT22;53063;39.614;8.814;2022-11-15T04:21:16;15.00;85.60
66271;DHT22;53063;39.614;8.814;2022-11-15T04:24:19;15.00;85.60
66271;DHT22;53063;39.614;8.814;2022-11-15T04:27:03;15.00;85.90
66271;DHT22;53063;39.614;8.814;2022-11-15T04:29:48;15.00;86.20
66271;DHT22;53063;39.614;8.814;2022-11-15T04:32:33;15.00;86.30
66271;DHT22;53063;39.614;8.814;2022-11-15T04:35:17;15.10;86.30
66271;DHT22;53063;39.614;8.814;2022-11-15T04:38:04;15.00;86.30
66271;DHT22;53063;39.614;8.814;2022-11-15T04:40:48;15.00;86.40
66271;DHT22;53063;39.614;8.814;2022-11-15T04:43:33;15.00;86.30
66271;DHT22;53063;39.614;8.814;2022-11-15T04:46:17;15.10;85.90
66271;DHT22;53063;39.614;8.814;2022-11-15T04:49:02;15.00;85.50
66271;DHT22;53063;39.614;8.814;2022-11-15T04:51:47;15.00;85.30
66271;DHT22;53063;39.614;8.814;2022-11-15T04:54:31;15.00;85.20
66271;DHT22;53063;39.614;8.814;2022-11-15T04:57:16;15.00;85.20
66271;DHT22;53063;39.614;8.814;2022-11-15T05:00:03;15.00;85.00
66271;DHT22;53063;39.614;8.814;2022-11-15T05:02:47;15.10;85.00
66271;DHT22;53063;39.614;8.814;2022-11-15T05:05:50;15.00;84.90
66271;DHT22;53063;39.614;8.814;2022-11-15T05:08:35;15.00;85.20
66271;DHT22;53063;39.614;8.814;2022-11-15T05:11:20;15.10;85.40
66271;DHT22;53063;39.614;8.814;2022-11-15T05:14:05;15.00;85.50
66271;DHT22;53063;39.614;8.814;2022-11-15T05:16:50;15.00;85.90
66271;DHT22;53063;39.614;8.814;2022-11-15T05:19:34;15.10;85.80
66271;DHT22;53063;39.614;8.814;2022-11-15T05:22:19;15.10;85.80
66271;DHT22;53063;39.614;8.814;2022-11-15T05:25:04;15.10;85.70
66271;DHT22;53063;39.614;8.814;2022-11-15T05:27:49;15.10;85.70
66271;DHT22;53063;39.614;8.814;2022-11-15T05:30:33;15.20;85.50
66271;DHT22;53063;39.614;8.814;2022-11-15T05:33:18;15.20;85.60
66271;DHT22;53063;39.614;8.814;2022-11-15T05:36:12;15.20;85.70
66271;DHT22;53063;39.614;8.814;2022-11-15T05:38:57;15.20;85.70
66271;DHT22;53063;39.614;8.814;2022-11-15T05:41:50;15.20;85.70
66271;DHT22;53063;39.614;8.814;2022-11-15T05:44:36;15.20;85.60
66271;DHT22;53063;39.614;8.814;2022-11-15T05:47:24;15.20;85.70
66271;DHT22;53063;39.614;8.814;2022-11-15T05:50:12;15.20;85.90
66271;DHT22;53063;39.614;8.814;2022-11-15T05:52:59;15.20;86.10
66271;DHT22;53063;39.614;8.814;2022-11-15T05:55:44;15.10;86.20
66271;DHT22;53063;39.614;8.814;2022-11-15T05:58:30;15.10;86.50
66271;DHT22;53063;39.614;8.814;2022-11-15T06:01:15;15.10;86.60
66271;DHT22;53063;39.614;8.814;2022-11-15T06:03:59;15.10;86.70
66271;DHT22;53063;39.614;8.814;2022-11-15T06:06:44;15.10;86.90
66271;DHT22;53063;39.614;8.814;2022-11-15T06:09:28;15.10;86.80
66271;DHT22;53063;39.614;8.814;2022-11-15T06:12:13;15.10;86.70
66271;DHT22;53063;39.614;8.814;2022-11-15T06:14:57;15.10;86.60
66271;DHT22;53063;39.614;8.814;2022-11-15T06:17:42;15.20;86.60
66271;DHT22;53063;39.614;8.814;2022-11-15T06:20:28;15.20;86.70
66271;DHT22;53063;39.614;8.814;2022-11-15T06:23:13;15.20;86.70
66271;DHT22;53063;39.614;8.814;2022-11-15T06:25:58;15.20;86.60
66271;DHT22;53063;39.614;8.814;2022-11-15T06:28:43;15.30;86.70
66271;DHT22;53063;39.614;8.814;2022-11-15T06:31:28;15.30;86.80
66271;DHT22;53063;39.614;8.814;2022-11-15T06:34:12;15.30;87.00
66271;DHT22;53063;39.614;8.814;2022-11-15T06:36:57;15.30;87.00
66271;DHT22;53063;39.614;8.814;2022-11-15T06:39:41;15.30;87.00
66271;DHT22;53063;39.614;8.814;2022-11-15T06:42:26;15.30;87.00
66271;DHT22;53063;39.614;8.814;2022-11-15T06:45:10;15.40;86.90
66271;DHT22;53063;39.614;8.814;2022-11-15T06:47:55;15.50;86.70
66271;DHT22;53063;39.614;8.814;2022-11-15T06:50:40;15.60;86.20
66271;DHT22;53063;39.614;8.814;2022-11-15T06:53:26;15.70;85.90
66271;DHT22;53063;39.614;8.814;2022-11-15T06:56:10;15.60;85.80
66271;DHT22;53063;39.614;8.814;2022-11-15T06:58:55;15.70;85.70
66271;DHT22;53063;39.614;8.814;2022-11-15T07:01:40;15.70;85.80
66271;DHT22;53063;39.614;8.814;2022-11-15T07:04:24;15.70;86.00
66271;DHT22;53063;39.614;8.814;2022-11-15T07:07:09;15.80;86.00
66271;DHT22;53063;39.614;8.814;2022-11-15T07:09:54;16.00;85.60
66271;DHT22;53063;39.614;8.814;2022-11-15T07:12:38;16.20;85.10
66271;DHT22;53063;39.614;8.814;2022-11-15T07:15:24;16.50;84.60
66271;DHT22;53063;39.614;8.814;2022-11-15T07:18:09;17.50;82.10
66271;DHT22;53063;39.614;8.814;2022-11-15T07:20:54;17.80;78.80
66271;DHT22;53063;39.614;8.814;2022-11-15T07:23:39;18.20;78.20
66271;DHT22;53063;39.614;8.814;2022-11-15T07:26:23;18.80;75.80
66271;DHT22;53063;39.614;8.814;2022-11-15T07:29:08;18.70;75.00
66271;DHT22;53063;39.614;8.814;2022-11-15T07:31:52;18.90;75.10
66271;DHT22;53063;39.614;8.814;2022-11-15T07:34:37;19.60;72.90
66271;DHT22;53063;39.614;8.814;2022-11-15T07:37:22;20.00;71.10
66271;DHT22;53063;39.614;8.814;2022-11-15T07:40:07;20.20;70.70
66271;DHT22;53063;39.614;8.814;2022-11-15T07:42:52;20.90;68.90
66271;DHT22;53063;39.614;8.814;2022-11-15T07:45:44;21.20;67.10
66271;DHT22;53063;39.614;8.814;2022-11-15T07:48:30;21.00;68.10
66271;DHT22;53063;39.614;8.814;2022-11-15T07:51:15;22.00;65.60
66271;DHT22;53063;39.614;8.814;2022-11-15T07:54:00;22.80;62.20
66271;DHT22;53063;39.614;8.814;2022-11-15T07:56:45;23.20;60.90
66271;DHT22;53063;39.614;8.814;2022-11-15T07:59:29;23.10;61.10
66271;DHT22;53063;39.614;8.814;2022-11-15T08:02:14;23.90;59.90
66271;DHT22;53063;39.614;8.814;2022-11-15T08:05:02;21.90;64.00
66271;DHT22;53063;39.614;8.814;2022-11-15T08:07:46;21.50;66.20
66271;DHT22;53063;39.614;8.814;2022-11-15T08:10:31;21.40;67.70
66271;DHT22;53063;39.614;8.814;2022-11-15T08:13:16;22.00;64.70
66271;DHT22;53063;39.614;8.814;2022-11-15T08:16:02;21.30;66.80
66271;DHT22;53063;39.614;8.814;2022-11-15T08:18:47;21.10;69.20
66271;DHT22;53063;39.614;8.814;2022-11-15T08:21:32;22.80;63.10
66271;DHT22;53063;39.614;8.814;2022-11-15T08:24:16;22.50;64.00
66271;DHT22;53063;39.614;8.814;2022-11-15T08:27:01;22.40;64.80
66271;DHT22;53063;39.614;8.814;2022-11-15T08:29:48;22.80;63.90
66271;DHT22;53063;39.614;8.814;2022-11-15T08:32:32;22.60;64.00
66271;DHT22;53063;39.614;8.814;2022-11-15T08:35:18;23.60;61.10
66271;DHT22;53063;39.614;8.814;2022-11-15T08:38:03;24.50;60.10
66271;DHT22;53063;39.614;8.814;2022-11-15T08:40:47;25.00;58.00
66271;DHT22;53063;39.614;8.814;2022-11-15T08:43:32;25.00;59.00
66271;DHT22;53063;39.614;8.814;2022-11-15T08:46:17;24.70;58.80
66271;DHT22;53063;39.614;8.814;2022-11-15T08:49:02;25.90;56.80
66271;DHT22;53063;39.614;8.814;2022-11-15T08:51:46;24.40;59.40
66271;DHT22;53063;39.614;8.814;2022-11-15T08:54:31;23.70;61.20
66271;DHT22;53063;39.614;8.814;2022-11-15T08:57:16;21.80;66.70
66271;DHT22;53063;39.614;8.814;2022-11-15T09:00:00;21.60;68.90
66271;DHT22;53063;39.614;8.814;2022-11-15T09:02:45;22.30;66.90
66271;DHT22;53063;39.614;8.814;2022-11-15T09:05:29;22.60;66.40
66271;DHT22;53063;39.614;8.814;2022-11-15T09:08:14;21.50;69.30
66271;DHT22;53063;39.614;8.814;2022-11-15T09:11:05;20.60;72.10
66271;DHT22;53063;39.614;8.814;2022-11-15T09:13:50;20.50;73.30
66271;DHT22;53063;39.614;8.814;2022-11-15T09:16:34;21.50;70.30
66271;DHT22;53063;39.614;8.814;2022-11-15T09:19:19;22.80;65.40
66271;DHT22;53063;39.614;8.814;2022-11-15T09:22:06;24.00;62.30
66271;DHT22;53063;39.614;8.814;2022-11-15T09:24:50;24.30;61.70
66271;DHT22;53063;39.614;8.814;2022-11-15T09:27:35;25.30;59.10
66271;DHT22;53063;39.614;8.814;2022-11-15T09:30:20;24.70;59.90
66271;DHT22;53063;39.614;8.814;2022-11-15T09:33:09;26.00;57.20
66271;DHT22;53063;39.614;8.814;2022-11-15T09:35:54;25.90;57.30
66271;DHT22;53063;39.614;8.814;2022-11-15T09:38:38;25.90;56.50
66271;DHT22;53063;39.614;8.814;2022-11-15T09:41:55;26.40;55.70
66271;DHT22;53063;39.614;8.814;2022-11-15T09:51:04;25.50;58.70
66271;DHT22;53063;39.614;8.814;2022-11-15T09:53:43;25.00;59.70
66271;DHT22;53063;39.614;8.814;2022-11-15T09:56:22;23.60;63.90
66271;DHT22;53063;39.614;8.814;2022-11-15T10:04:02;23.10;65.00
66271;DHT22;53063;39.614;8.814;2022-11-15T10:06:28;23.00;66.20
66271;DHT22;53063;39.614;8.814;2022-11-15T10:09:01;24.70;61.40
66271;DHT22;53063;39.614;8.814;2022-11-15T10:11:31;25.60;59.50
66271;DHT22;53063;39.614;8.814;2022-11-15T10:14:18;26.10;57.20
66271;DHT22;53063;39.614;8.814;2022-11-15T10:25:16;25.20;59.50
66271;DHT22;53063;39.614;8.814;2022-11-15T10:27:44;24.10;62.20
66271;DHT22;53063;39.614;8.814;2022-11-15T10:30:14;23.40;63.20
66271;DHT22;53063;39.614;8.814;2022-11-15T10:32:43;23.40;62.70
66271;DHT22;53063;39.614;8.814;2022-11-15T10:35:25;22.80;63.90
66271;DHT22;53063;39.614;8.814;2022-11-15T10:37:51;22.70;65.20
66271;DHT22;53063;39.614;8.814;2022-11-15T10:40:23;22.90;63.60
66271;DHT22;53063;39.614;8.814;2022-11-15T10:45:37;22.30;64.40
66271;DHT22;53063;39.614;8.814;2022-11-15T10:50:43;22.90;65.30
66271;DHT22;53063;39.614;8.814;2022-11-15T10:55:47;23.10;63.70
66271;DHT22;53063;39.614;8.814;2022-11-15T10:58:37;22.60;63.40
66271;DHT22;53063;39.614;8.814;2022-11-15T11:01:19;22.60;64.40
66271;DHT22;53063;39.614;8.814;2022-11-15T11:04:28;22.70;64.50
66271;DHT22;53063;39.614;8.814;2022-11-15T11:06:54;22.60;65.70
66271;DHT22;53063;39.614;8.814;2022-11-15T11:11:52;22.70;63.60
66271;DHT22;53063;39.614;8.814;2022-11-15T11:14:29;23.30;62.10
66271;DHT22;53063;39.614;8.814;2022-11-15T11:17:44;23.40;62.00
66271;DHT22;53063;39.614;8.814;2022-11-15T11:23:14;23.00;61.50
66271;DHT22;53063;39.614;8.814;2022-11-15T11:25:56;23.40;60.90
66271;DHT22;53063;39.614;8.814;2022-11-15T11:31:45;23.30;61.90
66271;DHT22;53063;39.614;8.814;2022-11-15T11:45:18;23.60;60.30
66271;DHT22;53063;39.614;8.814;2022-11-15T11:47:52;23.40;61.80
66271;DHT22;53063;39.614;8.814;2022-11-15T11:50:25;23.20;60.70
66271;DHT22;53063;39.614;8.814;2022-11-15T11:55:47;23.40;60.60
66271;DHT22;53063;39.614;8.814;2022-11-15T11:58:46;23.40;60.10
66271;DHT22;53063;39.614;8.814;2022-11-15T12:03:59;23.20;60.90
66271;DHT22;53063;39.614;8.814;2022-11-15T12:06:35;23.40;60.80
66271;DHT22;53063;39.614;8.814;2022-11-15T12:12:10;23.60;58.80
66271;DHT22;53063;39.614;8.814;2022-11-15T12:17:13;23.20;59.30
66271;DHT22;53063;39.614;8.814;2022-11-15T12:19:41;23.10;60.10
66271;DHT22;53063;39.614;8.814;2022-11-15T12:24:51;24.10;59.40
66271;DHT22;53063;39.614;8.814;2022-11-15T12:27:40;23.90;58.50
66271;DHT22;53063;39.614;8.814;2022-11-15T12:30:19;24.00;56.50
66271;DHT22;53063;39.614;8.814;2022-11-15T12:33:31;23.50;58.10
66271;DHT22;53063;39.614;8.814;2022-11-15T12:36:02;23.70;58.10
66271;DHT22;53063;39.614;8.814;2022-11-15T12:39:00;23.70;59.00
66271;DHT22;53063;39.614;8.814;2022-11-15T12:41:33;23.30;59.10
66271;DHT22;53063;39.614;8.814;2022-11-15T12:43:59;22.90;60.70
66271;DHT22;53063;39.614;8.814;2022-11-15T12:51:22;22.70;62.60
66271;DHT22;53063;39.614;8.814;2022-11-15T12:53:48;22.60;62.60
66271;DHT22;53063;39.614;8.814;2022-11-15T12:58:43;22.60;62.00
66271;DHT22;53063;39.614;8.814;2022-11-15T13:12:11;23.60;58.00
66271;DHT22;53063;39.614;8.814;2022-11-15T13:17:42;24.10;55.50
66271;DHT22;53063;39.614;8.814;2022-11-15T13:22:41;25.10;55.30
66271;DHT22;53063;39.614;8.814;2022-11-15T13:27:54;25.30;54.00
66271;DHT22;53063;39.614;8.814;2022-11-15T13:30:28;25.00;54.00
66271;DHT22;53063;39.614;8.814;2022-11-15T13:32:55;25.30;53.40
66271;DHT22;53063;39.614;8.814;2022-11-15T13:35:25;25.30;53.00
66271;DHT22;53063;39.614;8.814;2022-11-15T13:37:54;24.80;53.60
66271;DHT22;53063;39.614;8.814;2022-11-15T13:40:21;25.20;53.30
66271;DHT22;53063;39.614;8.814;2022-11-15T13:42:47;23.90;54.30
66271;DHT22;53063;39.614;8.814;2022-11-15T13:45:16;24.20;56.50
66271;DHT22;53063;39.614;8.814;2022-11-15T13:47:42;24.00;56.50
66271;DHT22;53063;39.614;8.814;2022-11-15T13:50:12;24.30;56.70
66271;DHT22;53063;39.614;8.814;2022-11-15T13:52:40;23.60;56.90
66271;DHT22;53063;39.614;8.814;2022-11-15T13:55:15;23.60;58.60
66271;DHT22;53063;39.614;8.814;2022-11-15T13:57:48;23.20;58.50
66271;DHT22;53063;39.614;8.814;2022-11-15T14:02:54;23.30;57.50
66271;DHT22;53063;39.614;8.814;2022-11-15T14:05:23;23.20;57.70
66271;DHT22;53063;39.614;8.814;2022-11-15T14:08:11;23.10;58.10
66271;DHT22;53063;39.614;8.814;2022-11-15T14:10:39;23.20;58.60
66271;DHT22;53063;39.614;8.814;2022-11-15T14:13:26;23.00;58.90
66271;DHT22;53063;39.614;8.814;2022-11-15T14:15:52;23.10;59.40
66271;DHT22;53063;39.614;8.814;2022-11-15T14:18:41;23.10;60.40
66271;DHT22;53063;39.614;8.814;2022-11-15T14:21:08;22.80;60.30
66271;DHT22;53063;39.614;8.814;2022-11-15T14:23:34;23.00;60.60
66271;DHT22;53063;39.614;8.814;2022-11-15T14:26:00;23.10;59.10
66271;DHT22;53063;39.614;8.814;2022-11-15T14:30:54;22.90;59.60
66271;DHT22;53063;39.614;8.814;2022-11-15T14:33:30;22.80;60.50
66271;DHT22;53063;39.614;8.814;2022-11-15T14:36:02;22.80;60.60
66271;DHT22;53063;39.614;8.814;2022-11-15T14:38:28;22.70;60.50
66271;DHT22;53063;39.614;8.814;2022-11-15T14:40:54;22.50;61.60
66271;DHT22;53063;39.614;8.814;2022-11-15T14:43:21;22.60;61.60
66271;DHT22;53063;39.614;8.814;2022-11-15T14:45:47;22.60;61.70
66271;DHT22;53063;39.614;8.814;2022-11-15T14:48:13;22.50;61.70
66271;DHT22;53063;39.614;8.814;2022-11-15T14:50:39;22.40;61.10
66271;DHT22;53063;39.614;8.814;2022-11-15T14:53:05;22.40;61.40
66271;DHT22;53063;39.614;8.814;2022-11-15T14:55:34;22.20;61.60
66271;DHT22;53063;39.614;8.814;2022-11-15T14:58:05;22.20;62.20
66271;DHT22;53063;39.614;8.814;2022-11-15T15:00:35;22.30;62.10
66271;DHT22;53063;39.614;8.814;2022-11-15T15:03:02;22.10;62.30
66271;DHT22;53063;39.614;8.814;2022-11-15T15:05:36;21.90;63.00
66271;DHT22;53063;39.614;8.814;2022-11-15T15:08:03;21.70;63.60
66271;DHT22;53063;39.614;8.814;2022-11-15T15:10:39;21.60;63.90
66271;DHT22;53063;39.614;8.814;2022-11-15T15:13:05;21.00;65.10
66271;DHT22;53063;39.614;8.814;2022-11-15T15:15:36;21.10;66.10
66271;DHT22;53063;39.614;8.814;2022-11-15T15:18:03;21.00;65.60
66271;DHT22;53063;39.614;8.814;2022-11-15T15:20:31;20.70;66.40
66271;DHT22;53063;39.614;8.814;2022-11-15T15:22:57;20.70;66.70
66271;DHT22;53063;39.614;8.814;2022-11-15T15:25:34;20.70;66.60
66271;DHT22;53063;39.614;8.814;2022-11-15T15:28:01;20.70;66.60
66271;DHT22;53063;39.614;8.814;2022-11-15T15:30:29;20.60;66.80
66271;DHT22;53063;39.614;8.814;2022-11-15T15:32:55;20.60;67.00
66271;DHT22;53063;39.614;8.814;2022-11-15T15:35:22;20.50;67.20
66271;DHT22;53063;39.614;8.814;2022-11-15T15:37:48;20.30;68.10
66271;DHT22;53063;39.614;8.814;2022-11-15T15:40:20;20.40;68.70
66271;DHT22;53063;39.614;8.814;2022-11-15T15:42:47;20.40;68.60
66271;DHT22;53063;39.614;8.814;2022-11-15T15:45:14;20.40;68.90
66271;DHT22;53063;39.614;8.814;2022-11-15T15:47:41;20.30;69.30
66271;DHT22;53063;39.614;8.814;2022-11-15T15:50:18;20.30;69.70
66271;DHT22;53063;39.614;8.814;2022-11-15T15:52:45;20.30;69.80
66271;DHT22;53063;39.614;8.814;2022-11-15T15:55:11;20.20;69.80
66271;DHT22;53063;39.614;8.814;2022-11-15T15:57:37;20.10;70.40
66271;DHT22;53063;39.614;8.814;2022-11-15T16:00:04;20.00;70.60
66271;DHT22;53063;39.614;8.814;2022-11-15T16:02:38;20.00;70.90
66271;DHT22;53063;39.614;8.814;2022-11-15T16:05:04;19.80;71.00
66271;DHT22;53063;39.614;8.814;2022-11-15T16:07:30;19.70;71.20
66271;DHT22;53063;39.614;8.814;2022-11-15T16:09:57;19.70;71.20
66271;DHT22;53063;39.614;8.814;2022-11-15T16:12:30;19.70;71.40
66271;DHT22;53063;39.614;8.814;2022-11-15T16:14:57;19.60;71.50
66271;DHT22;53063;39.614;8.814;2022-11-15T16:17:29;19.50;71.70
66271;DHT22;53063;39.614;8.814;2022-11-15T16:19:55;19.40;72.10
66271;DHT22;53063;39.614;8.814;2022-11-15T16:22:21;19.40;72.20
66271;DHT22;53063;39.614;8.814;2022-11-15T16:24:47;19.30;72.40
66271;DHT22;53063;39.614;8.814;2022-11-15T16:27:18;19.30;72.60
66271;DHT22;53063;39.614;8.814;2022-11-15T16:29:45;19.20;72.90
66271;DHT22;53063;39.614;8.814;2022-11-15T16:32:12;19.30;72.80
66271;DHT22;53063;39.614;8.814;2022-11-15T16:34:38;19.20;72.60
66271;DHT22;53063;39.614;8.814;2022-11-15T16:37:05;19.00;73.00
66271;DHT22;53063;39.614;8.814;2022-11-15T16:39:32;18.90;73.20
66271;DHT22;53063;39.614;8.814;2022-11-15T16:41:58;18.90;73.20
66271;DHT22;53063;39.614;8.814;2022-11-15T16:44:25;19.10;73.00
66271;DHT22;53063;39.614;8.814;2022-11-15T16:46:52;19.10;72.30
66271;DHT22;53063;39.614;8.814;2022-11-15T16:49:19;19.10;72.20
66271;DHT22;53063;39.614;8.814;2022-11-15T16:51:49;19.10;72.20
66271;DHT22;53063;39.614;8.814;2022-11-15T16:54:15;19.10;72.30
66271;DHT22;53063;39.614;8.814;2022-11-15T16:56:41;19.00;72.30
66271;DHT22;53063;39.614;8.814;2022-11-15T16:59:10;18.90;72.70
66271;DHT22;53063;39.614;8.814;2022-11-15T17:01:39;18.90;73.00
66271;DHT22;53063;39.614;8.814;2022-11-15T17:04:12;18.90;73.00
66271;DHT22;53063;39.614;8.814;2022-11-15T17:06:42;18.60;73.40
66271;DHT22;53063;39.614;8.814;2022-11-15T17:09:17;18.70;73.80
66271;DHT22;53063;39.614;8.814;2022-11-15T17:11:44;18.80;73.80
66271;DHT22;53063;39.614;8.814;2022-11-15T17:14:11;18.90;73.30
66271;DHT22;53063;39.614;8.814;2022-11-15T17:16:37;18.90;73.00
66271;DHT22;53063;39.614;8.814;2022-11-15T17:19:11;18.90;72.80
66271;DHT22;53063;39.614;8.814;2022-11-15T17:21:38;18.70;73.20
66271;DHT22;53063;39.614;8.814;2022-11-15T17:24:04;18.70;73.20
66271;DHT22;53063;39.614;8.814;2022-11-15T17:26:30;18.70;73.40
66271;DHT22;53063;39.614;8.814;2022-11-15T17:28:56;18.50;73.80
66271;DHT22;53063;39.614;8.814;2022-11-15T17:31:23;18.40;74.00
66271;DHT22;53063;39.614;8.814;2022-11-15T17:33:49;18.50;74.40
66271;DHT22;53063;39.614;8.814;2022-11-15T17:36:15;18.40;74.50
66271;DHT22;53063;39.614;8.814;2022-11-15T17:38:41;18.30;74.60
66271;DHT22;53063;39.614;8.814;2022-11-15T17:41:14;18.30;75.20
66271;DHT22;53063;39.614;8.814;2022-11-15T17:43:41;18.40;75.00
66271;DHT22;53063;39.614;8.814;2022-11-15T17:46:10;18.40;74.90
66271;DHT22;53063;39.614;8.814;2022-11-15T17:48:36;18.40;74.90
66271;DHT22;53063;39.614;8.814;2022-11-15T17:51:04;18.40;74.90
66271;DHT22;53063;39.614;8.814;2022-11-15T17:53:33;18.20;75.10
66271;DHT22;53063;39.614;8.814;2022-11-15T17:56:07;18.30;75.60
66271;DHT22;53063;39.614;8.814;2022-11-15T17:58:34;18.20;75.80
66271;DHT22;53063;39.614;8.814;2022-11-15T18:01:19;18.10;76.00
66271;DHT22;53063;39.614;8.814;2022-11-15T18:03:46;18.20;76.20
66271;DHT22;53063;39.614;8.814;2022-11-15T18:06:12;18.10;76.50
66271;DHT22;53063;39.614;8.814;2022-11-15T18:08:40;18.00;76.60
66271;DHT22;53063;39.614;8.814;2022-11-15T18:11:08;18.00;77.10
66271;DHT22;53063;39.614;8.814;2022-11-15T18:13:35;18.00;77.40
66271;DHT22;53063;39.614;8.814;2022-11-15T18:16:04;18.10;77.30
66271;DHT22;53063;39.614;8.814;2022-11-15T18:18:31;18.20;76.80
66271;DHT22;53063;39.614;8.814;2022-11-15T18:21:15;18.10;76.70
66271;DHT22;53063;39.614;8.814;2022-11-15T18:23:42;18.00;77.20
66271;DHT22;53063;39.614;8.814;2022-11-15T18:26:10;17.80;77.50
66271;DHT22;53063;39.614;8.814;2022-11-15T18:28:42;17.60;78.20
66271;DHT22;53063;39.614;8.814;2022-11-15T18:31:20;17.70;78.40
66271;DHT22;53063;39.614;8.814;2022-11-15T18:33:47;17.60;78.30
66271;DHT22;53063;39.614;8.814;2022-11-15T18:36:24;17.40;79.00
66271;DHT22;53063;39.614;8.814;2022-11-15T18:38:59;17.40;79.40
66271;DHT22;53063;39.614;8.814;2022-11-15T18:41:27;17.40;79.70
66271;DHT22;53063;39.614;8.814;2022-11-15T18:43:54;17.50;79.80
66271;DHT22;53063;39.614;8.814;2022-11-15T18:46:23;17.60;79.80
66271;DHT22;53063;39.614;8.814;2022-11-15T18:48:50;17.60;80.00